createdAt,value
2018-09-13T00:00:35.547Z,1016.06
2018-09-13T00:01:45.500Z,1016.03
2018-09-13T00:02:55.712Z,1016.03
2018-09-13T00:04:05.678Z,1016.02
2018-09-13T00:05:15.645Z,1015.99
2018-09-13T00:06:25.611Z,1015.98
2018-09-13T00:07:35.347Z,1016.03
2018-09-13T00:08:45.490Z,1016.09
2018-09-13T00:09:55.196Z,1016.11
2018-09-13T00:11:05.167Z,1016.11
2018-09-13T00:12:15.147Z,1016.06
2018-09-13T00:13:25.103Z,1016.03
2018-09-13T00:14:34.548Z,1016.02
2018-09-13T00:15:44.504Z,1016.03
2018-09-13T00:16:53.687Z,1016.05
2018-09-13T00:18:03.643Z,1016.05
2018-09-13T00:19:13.599Z,1016.06
2018-09-13T00:20:23.055Z,1016.07
2018-09-13T00:21:33.008Z,1016.05
2018-09-13T00:22:42.979Z,1016.08
2018-09-13T00:23:52.963Z,1016.04
2018-09-13T00:25:02.917Z,1016.04
2018-09-13T00:26:12.871Z,1016.01
2018-09-13T00:27:22.315Z,1015.96
2018-09-13T00:28:32.012Z,1015.95
2018-09-13T00:29:41.453Z,1015.88
2018-09-13T00:30:51.412Z,1015.89
2018-09-13T00:32:01.374Z,1015.91
2018-09-13T00:33:11.450Z,1015.92
2018-09-13T00:34:21.449Z,1015.95
2018-09-13T00:35:31.416Z,1015.95
2018-09-13T00:36:41.112Z,1016.04
2018-09-13T00:37:51.067Z,1016.08
2018-09-13T00:39:01.068Z,1016.09
2018-09-13T00:40:10.753Z,1016.06
2018-09-13T00:41:20.452Z,1016.11
2018-09-13T00:42:30.154Z,1016.16
2018-09-13T00:43:40.108Z,1016.18
2018-09-13T00:44:49.812Z,1016.2
2018-09-13T00:45:59.771Z,1016.26
2018-09-13T00:47:09.733Z,1016.28
2018-09-13T00:48:19.436Z,1016.26
2018-09-13T00:49:29.401Z,1016.25
2018-09-13T00:50:39.097Z,1016.23
2018-09-13T00:51:49.056Z,1016.28
2018-09-13T00:52:58.758Z,1016.21
2018-09-13T00:54:08.720Z,1016.23
2018-09-13T00:55:18.671Z,1016.2
2018-09-13T00:56:28.648Z,1016.19
2018-09-13T00:57:38.610Z,1016.17
2018-09-13T00:58:48.603Z,1016.16
2018-09-13T00:59:58.427Z,1016.15
2018-09-13T01:01:08.386Z,1016.15
2018-09-13T01:02:18.444Z,1016.16
2018-09-13T01:03:28.144Z,1016.18
2018-09-13T01:04:37.847Z,1016.19
2018-09-13T01:05:47.554Z,1016.21
2018-09-13T01:06:57.537Z,1016.22
2018-09-13T01:08:07.500Z,1016.23
2018-09-13T01:09:17.457Z,1016.17
2018-09-13T01:10:27.157Z,1016.1
2018-09-13T01:11:37.105Z,1016.09
2018-09-13T01:12:47.066Z,1016.09
2018-09-13T01:13:57.031Z,1016.14
2018-09-13T01:15:06.999Z,1016.15
2018-09-13T01:16:16.963Z,1016.21
2018-09-13T01:17:26.918Z,1016.27
2018-09-13T01:18:36.879Z,1016.33
2018-09-13T01:19:46.826Z,1016.36
2018-09-13T01:20:56.793Z,1016.35
2018-09-13T01:22:06.752Z,1016.32
2018-09-13T01:23:16.180Z,1016.33
2018-09-13T01:24:26.129Z,1016.32
2018-09-13T01:25:35.324Z,1016.25
2018-09-13T01:26:44.766Z,1016.23
2018-09-13T01:27:54.458Z,1016.19
2018-09-13T01:29:04.167Z,1016.17
2018-09-13T01:30:14.124Z,1016.16
2018-09-13T01:31:24.079Z,1016.13
2018-09-13T01:32:34.041Z,1016.12
2018-09-13T01:33:43.743Z,1016.16
2018-09-13T01:34:53.188Z,1016.14
2018-09-13T01:36:02.889Z,1016.18
2018-09-13T01:37:12.591Z,1016.19
2018-09-13T01:38:22.287Z,1016.15
2018-09-13T01:39:32.246Z,1016.17
2018-09-13T01:40:42.216Z,1016.13
2018-09-13T01:41:52.194Z,1016.13
2018-09-13T01:43:01.898Z,1016.15
2018-09-13T01:44:11.080Z,1016.15
2018-09-13T01:45:21.042Z,1016.19
2018-09-13T01:46:30.996Z,1016.23
2018-09-13T01:47:40.959Z,1016.23
2018-09-13T01:48:50.665Z,1016.24
2018-09-13T01:50:00.146Z,1016.23
2018-09-13T01:51:10.098Z,1016.26
2018-09-13T01:52:19.806Z,1016.27
2018-09-13T01:53:29.760Z,1016.25
2018-09-13T01:54:39.714Z,1016.3
2018-09-13T01:55:49.657Z,1016.28
2018-09-13T01:56:59.615Z,1016.3
2018-09-13T01:58:09.058Z,1016.28
2018-09-13T01:59:18.761Z,1016.28
2018-09-13T02:00:28.697Z,1016.31
2018-09-13T02:01:38.642Z,1016.29
2018-09-13T02:02:48.328Z,1016.29
2018-09-13T02:03:58.279Z,1016.3
2018-09-13T02:05:07.985Z,1016.29
2018-09-13T02:06:17.919Z,1016.28
2018-09-13T02:07:27.881Z,1016.31
2018-09-13T02:08:37.852Z,1016.31
2018-09-13T02:09:47.803Z,1016.32
2018-09-13T02:10:57.758Z,1016.33
2018-09-13T02:12:07.715Z,1016.29
2018-09-13T02:13:17.669Z,1016.31
2018-09-13T02:14:27.618Z,1016.35
2018-09-13T02:15:37.581Z,1016.36
2018-09-13T02:16:47.531Z,1016.37
2018-09-13T02:17:57.218Z,1016.39
2018-09-13T02:19:07.172Z,1016.37
2018-09-13T02:20:17.120Z,1016.39
2018-09-13T02:21:26.813Z,1016.36
2018-09-13T02:22:36.510Z,1016.36
2018-09-13T02:23:46.467Z,1016.38
2018-09-13T02:24:56.413Z,1016.36
2018-09-13T02:26:06.111Z,1016.32
2018-09-13T02:27:16.067Z,1016.29
2018-09-13T02:28:26.021Z,1016.31
2018-09-13T02:29:35.707Z,1016.32
2018-09-13T02:30:45.659Z,1016.29
2018-09-13T02:31:55.351Z,1016.31
2018-09-13T02:33:05.057Z,1016.25
2018-09-13T02:34:14.508Z,1016.24
2018-09-13T02:35:24.465Z,1016.22
2018-09-13T02:36:34.426Z,1016.2
2018-09-13T02:37:44.376Z,1016.23
2018-09-13T02:38:54.342Z,1016.25
2018-09-13T02:40:04.292Z,1016.28
2018-09-13T02:41:14.246Z,1016.23
2018-09-13T02:42:24.216Z,1016.18
2018-09-13T02:43:34.169Z,1016.06
2018-09-13T02:44:43.865Z,1016.12
2018-09-13T02:45:53.555Z,1016.07
2018-09-13T02:47:03.493Z,1016.12
2018-09-13T02:48:13.441Z,1016.11
2018-09-13T02:49:23.172Z,1016.05
2018-09-13T02:50:33.139Z,1016.06
2018-09-13T02:51:43.088Z,1016.01
2018-09-13T02:52:52.805Z,1016.02
2018-09-13T02:54:02.754Z,1016.03
2018-09-13T02:55:12.433Z,1016.06
2018-09-13T02:56:22.391Z,1016.11
2018-09-13T02:57:32.341Z,1016.16
2018-09-13T02:58:42.035Z,1016.2
2018-09-13T02:59:51.987Z,1016.18
2018-09-13T03:01:01.944Z,1016.17
2018-09-13T03:02:11.642Z,1016.21
2018-09-13T03:03:21.612Z,1016.19
2018-09-13T03:04:31.563Z,1016.2
2018-09-13T03:05:41.536Z,1016.25
2018-09-13T03:06:51.474Z,1016.19
2018-09-13T03:08:01.164Z,1016.23
2018-09-13T03:09:11.247Z,1016.22
2018-09-13T03:10:20.955Z,1016.24
2018-09-13T03:11:30.667Z,1016.29
2018-09-13T03:12:40.352Z,1016.28
2018-09-13T03:13:50.314Z,1016.31
2018-09-13T03:15:00.284Z,1016.26
2018-09-13T03:16:10.247Z,1016.24
2018-09-13T03:17:20.215Z,1016.19
2018-09-13T03:18:30.167Z,1016.13
2018-09-13T03:19:40.109Z,1016.15
2018-09-13T03:20:50.078Z,1016.1
2018-09-13T03:22:00.029Z,1016.17
2018-09-13T03:23:09.745Z,1016.24
2018-09-13T03:24:19.171Z,1016.3
2018-09-13T03:25:29.116Z,1016.33
2018-09-13T03:26:39.058Z,1016.29
2018-09-13T03:27:48.761Z,1016.23
2018-09-13T03:28:58.448Z,1016.24
2018-09-13T03:30:08.401Z,1016.21
2018-09-13T03:31:18.352Z,1016.14
2018-09-13T03:32:28.169Z,1016.11
2018-09-13T03:33:38.137Z,1016.13
2018-09-13T03:34:48.095Z,1016.08
2018-09-13T03:35:58.047Z,1016.1
2018-09-13T03:37:07.731Z,1016.06
2018-09-13T03:38:17.668Z,1016.05
2018-09-13T03:39:27.607Z,1016.05
2018-09-13T03:40:37.046Z,1016.02
2018-09-13T03:41:46.997Z,1016.03
2018-09-13T03:42:57.194Z,1016.03
2018-09-13T03:44:07.137Z,1016
2018-09-13T03:45:17.080Z,1015.98
2018-09-13T03:46:26.774Z,1015.92
2018-09-13T03:47:36.476Z,1015.91
2018-09-13T03:48:46.163Z,1015.85
2018-09-13T03:49:56.122Z,1015.8
2018-09-13T03:51:05.564Z,1015.81
2018-09-13T03:52:15.515Z,1015.8
2018-09-13T03:53:25.467Z,1015.81
2018-09-13T03:54:34.907Z,1015.84
2018-09-13T03:55:44.889Z,1015.88
2018-09-13T03:56:54.841Z,1015.88
2018-09-13T03:58:04.550Z,1015.88
2018-09-13T03:59:14.494Z,1015.82
2018-09-13T04:00:23.932Z,1015.82
2018-09-13T04:01:33.878Z,1015.85
2018-09-13T04:02:43.308Z,1015.81
2018-09-13T04:03:53.265Z,1015.83
2018-09-13T04:05:03.226Z,1015.79
2018-09-13T04:06:12.919Z,1015.78
2018-09-13T04:07:22.876Z,1015.9
2018-09-13T04:08:32.559Z,1015.85
2018-09-13T04:09:42.267Z,1015.86
2018-09-13T04:10:52.241Z,1015.89
2018-09-13T04:12:01.946Z,1015.88
2018-09-13T04:13:11.628Z,1015.89
2018-09-13T04:14:21.585Z,1015.94
2018-09-13T04:15:31.281Z,1015.89
2018-09-13T04:16:41.228Z,1015.91
2018-09-13T04:17:50.941Z,1015.92
2018-09-13T04:19:00.619Z,1015.93
2018-09-13T04:20:10.563Z,1015.84
2018-09-13T04:21:20.258Z,1015.88
2018-09-13T04:22:30.260Z,1015.87
2018-09-13T04:23:40.134Z,1015.86
2018-09-13T04:24:50.073Z,1015.85
2018-09-13T04:26:00.037Z,1015.92
2018-09-13T04:27:09.988Z,1015.9
2018-09-13T04:28:19.936Z,1015.93
2018-09-13T04:29:29.873Z,1015.92
2018-09-13T04:30:39.307Z,1015.92
2018-09-13T04:31:49.265Z,1015.96
2018-09-13T04:32:58.742Z,1015.93
2018-09-13T04:34:08.699Z,1015.93
2018-09-13T04:35:18.672Z,1015.92
2018-09-13T04:36:28.749Z,1015.92
2018-09-13T04:37:38.443Z,1015.92
2018-09-13T04:38:48.392Z,1015.92
2018-09-13T04:39:58.357Z,1015.86
2018-09-13T04:41:08.298Z,1015.87
2018-09-13T04:42:18.232Z,1015.89
2018-09-13T04:43:27.928Z,1015.9
2018-09-13T04:44:37.883Z,1015.9
2018-09-13T04:45:47.585Z,1015.91
2018-09-13T04:46:57.542Z,1015.9
2018-09-13T04:48:07.511Z,1015.9
2018-09-13T04:49:17.594Z,1015.92
2018-09-13T04:50:27.511Z,1015.94
2018-09-13T04:51:37.198Z,1015.94
2018-09-13T04:52:46.597Z,1015.95
2018-09-13T04:53:56.550Z,1015.95
2018-09-13T04:55:06.498Z,1015.97
2018-09-13T04:56:16.433Z,1015.98
2018-09-13T04:57:26.390Z,1015.98
2018-09-13T04:58:36.076Z,1016.06
2018-09-13T04:59:45.773Z,1016.04
2018-09-13T05:00:55.729Z,1016.04
2018-09-13T05:02:05.688Z,1016.02
2018-09-13T05:03:15.663Z,1015.99
2018-09-13T05:04:25.106Z,1015.96
2018-09-13T05:05:35.044Z,1015.96
2018-09-13T05:06:45.143Z,1015.99
2018-09-13T05:07:55.214Z,1015.98
2018-09-13T05:09:04.903Z,1015.98
2018-09-13T05:10:14.609Z,1016.01
2018-09-13T05:11:24.553Z,1015.96
2018-09-13T05:12:34.239Z,1015.96
2018-09-13T05:13:44.329Z,1015.89
2018-09-13T05:14:54.029Z,1015.9
2018-09-13T05:16:03.958Z,1015.86
2018-09-13T05:17:13.637Z,1015.89
2018-09-13T05:18:23.338Z,1015.9
2018-09-13T05:19:33.018Z,1015.91
2018-09-13T05:20:42.985Z,1015.86
2018-09-13T05:21:52.934Z,1015.91
2018-09-13T05:23:02.889Z,1015.94
2018-09-13T05:24:12.850Z,1015.98
2018-09-13T05:25:23.038Z,1016.03
2018-09-13T05:26:32.464Z,1016.02
2018-09-13T05:27:42.407Z,1016.06
2018-09-13T05:28:52.346Z,1016.07
2018-09-13T05:30:02.301Z,1016.11
2018-09-13T05:31:12.273Z,1016.11
2018-09-13T05:32:22.215Z,1016.1
2018-09-13T05:33:31.911Z,1016.13
2018-09-13T05:34:41.885Z,1016.06
2018-09-13T05:35:51.841Z,1016.09
2018-09-13T05:37:01.553Z,1016.06
2018-09-13T05:38:11.272Z,1016.06
2018-09-13T05:39:21.215Z,1016.11
2018-09-13T05:40:31.162Z,1016.11
2018-09-13T05:41:41.149Z,1016.11
2018-09-13T05:42:50.609Z,1016.1
2018-09-13T05:44:00.566Z,1016.13
2018-09-13T05:45:10.518Z,1016.11
2018-09-13T05:46:20.509Z,1016.1
2018-09-13T05:47:30.286Z,1016.03
2018-09-13T05:48:40.258Z,1016.04
2018-09-13T05:49:50.049Z,1016.03
2018-09-13T05:51:00.015Z,1015.97
2018-09-13T05:52:10.327Z,1015.98
2018-09-13T05:53:20.076Z,1016.03
2018-09-13T05:54:30.045Z,1016
2018-09-13T05:55:40.002Z,1016.01
2018-09-13T05:56:49.693Z,1016.03
2018-09-13T05:57:59.684Z,1016.05
2018-09-13T05:59:09.720Z,1016.02
2018-09-13T06:00:19.448Z,1016
2018-09-13T06:01:29.486Z,1016
2018-09-13T06:02:39.743Z,1015.92
2018-09-13T06:03:49.440Z,1015.95
2018-09-13T06:04:59.468Z,1016
2018-09-13T06:06:09.424Z,1016.01
2018-09-13T06:07:19.389Z,1015.98
2018-09-13T06:08:28.834Z,1016.01
2018-09-13T06:09:38.526Z,1016
2018-09-13T06:10:48.476Z,1016.01
2018-09-13T06:11:58.171Z,1016.01
2018-09-13T06:13:07.865Z,1016.09
2018-09-13T06:14:17.813Z,1016.09
2018-09-13T06:15:27.774Z,1016.12
2018-09-13T06:16:37.730Z,1016.09
2018-09-13T06:17:47.427Z,1016.11
2018-09-13T06:18:57.443Z,1016.16
2018-09-13T06:20:07.405Z,1016.2
2018-09-13T06:21:17.096Z,1016.25
2018-09-13T06:22:26.801Z,1016.27
2018-09-13T06:23:36.772Z,1016.3
2018-09-13T06:24:46.218Z,1016.32
2018-09-13T06:25:56.177Z,1016.34
2018-09-13T06:27:05.617Z,1016.28
2018-09-13T06:28:15.319Z,1016.19
2018-09-13T06:29:25.049Z,1016.15
2018-09-13T06:30:35.336Z,1016.13
2018-09-13T06:31:44.776Z,1016.08
2018-09-13T06:32:54.738Z,1016.06
2018-09-13T06:34:04.704Z,1016.09
2018-09-13T06:35:14.440Z,1016.12
2018-09-13T06:36:24.440Z,1016.08
2018-09-13T06:37:34.527Z,1015.98
2018-09-13T06:38:44.481Z,1015.93
2018-09-13T06:39:54.197Z,1015.95
2018-09-13T06:41:04.170Z,1016.03
2018-09-13T06:42:14.154Z,1016.11
2018-09-13T06:43:24.088Z,1016.16
2018-09-13T06:44:34.051Z,1016.11
2018-09-13T06:45:43.501Z,1016.07
2018-09-13T06:46:53.503Z,1016.08
2018-09-13T06:48:02.934Z,1016.11
2018-09-13T06:49:12.359Z,1016.14
2018-09-13T06:50:22.067Z,1016.16
2018-09-13T06:51:32.026Z,1016.17
2018-09-13T06:52:41.994Z,1016.21
2018-09-13T06:53:51.953Z,1016.29
2018-09-13T06:55:01.728Z,1016.34
2018-09-13T06:56:11.689Z,1016.38
2018-09-13T06:57:21.647Z,1016.45
2018-09-13T06:58:31.358Z,1016.48
2018-09-13T06:59:41.053Z,1016.5
2018-09-13T07:00:51.007Z,1016.52
2018-09-13T07:02:00.461Z,1016.51
2018-09-13T07:03:10.427Z,1016.5
2018-09-13T07:04:20.384Z,1016.48
2018-09-13T07:05:30.411Z,1016.46
2018-09-13T07:06:40.513Z,1016.4
2018-09-13T07:07:50.228Z,1016.37
2018-09-13T07:09:00.209Z,1016.31
2018-09-13T07:10:10.442Z,1016.33
2018-09-13T07:11:20.178Z,1016.35
2018-09-13T07:12:30.233Z,1016.4
2018-09-13T07:13:40.190Z,1016.41
2018-09-13T07:14:50.179Z,1016.47
2018-09-13T07:16:00.154Z,1016.48
2018-09-13T07:17:10.127Z,1016.52
2018-09-13T07:18:19.830Z,1016.54
2018-09-13T07:19:29.534Z,1016.5
2018-09-13T07:20:39.248Z,1016.5
2018-09-13T07:21:49.196Z,1016.56
2018-09-13T07:22:58.887Z,1016.58
2018-09-13T07:24:08.605Z,1016.56
2018-09-13T07:25:18.335Z,1016.54
2018-09-13T07:26:28.040Z,1016.53
2018-09-13T07:27:37.508Z,1016.52
2018-09-13T07:28:47.490Z,1016.56
2018-09-13T07:29:57.215Z,1016.52
2018-09-13T07:31:07.220Z,1016.41
2018-09-13T07:32:17.201Z,1016.4
2018-09-13T07:33:26.912Z,1016.33
2018-09-13T07:34:36.882Z,1016.31
2018-09-13T07:35:46.839Z,1016.38
2018-09-13T07:36:56.800Z,1016.4
2018-09-13T07:38:06.516Z,1016.49
2018-09-13T07:39:16.225Z,1016.52
2018-09-13T07:40:26.195Z,1016.55
2018-09-13T07:41:36.150Z,1016.5
2018-09-13T07:42:46.143Z,1016.46
2018-09-13T07:43:56.334Z,1016.4
2018-09-13T07:45:06.048Z,1016.38
2018-09-13T07:46:15.770Z,1016.36
2018-09-13T07:47:25.744Z,1016.39
2018-09-13T07:48:35.704Z,1016.44
2018-09-13T07:49:45.851Z,1016.44
2018-09-13T07:50:56.750Z,1016.42
2018-09-13T07:52:06.181Z,1016.43
2018-09-13T07:53:16.169Z,1016.46
2018-09-13T07:54:26.141Z,1016.44
2018-09-13T07:55:35.920Z,1016.49
2018-09-13T07:56:46.168Z,1016.45
2018-09-13T07:57:56.152Z,1016.44
2018-09-13T07:59:06.316Z,1016.38
2018-09-13T08:00:16.313Z,1016.39
2018-09-13T08:01:26.294Z,1016.38
2018-09-13T08:02:36.323Z,1016.34
2018-09-13T08:03:46.395Z,1016.32
2018-09-13T08:04:56.406Z,1016.33
2018-09-13T08:06:06.859Z,1016.37
2018-09-13T08:07:16.565Z,1016.41
2018-09-13T08:08:26.534Z,1016.48
2018-09-13T08:09:36.503Z,1016.47
2018-09-13T08:10:46.233Z,1016.51
2018-09-13T08:11:55.954Z,1016.56
2018-09-13T08:13:07.137Z,1016.5
2018-09-13T08:14:16.841Z,1016.53
2018-09-13T08:15:26.819Z,1016.52
2018-09-13T08:16:36.314Z,1016.47
2018-09-13T08:17:46.324Z,1016.45
2018-09-13T08:18:56.297Z,1016.42
2018-09-13T08:20:06.257Z,1016.44
2018-09-13T08:21:16.326Z,1016.52
2018-09-13T08:22:26.182Z,1016.51
2018-09-13T08:23:36.173Z,1016.52
2018-09-13T08:24:45.885Z,1016.56
2018-09-13T08:25:55.855Z,1016.51
2018-09-13T08:27:05.572Z,1016.42
2018-09-13T08:28:15.260Z,1016.42
2018-09-13T08:29:24.986Z,1016.37
2018-09-13T08:30:34.946Z,1016.37
2018-09-13T08:31:44.905Z,1016.32
2018-09-13T08:32:54.865Z,1016.31
2018-09-13T08:34:04.862Z,1016.32
2018-09-13T08:35:15.014Z,1016.36
2018-09-13T08:36:24.479Z,1016.41
2018-09-13T08:39:28.924Z,1016.4
2018-09-13T08:40:38.891Z,1016.41
2018-09-13T08:41:49.097Z,1016.48
2018-09-13T08:42:59.133Z,1016.51
2018-09-13T08:44:09.186Z,1016.53
2018-09-13T08:45:19.158Z,1016.58
2018-09-13T08:46:29.148Z,1016.57
2018-09-13T08:47:39.355Z,1016.57
2018-09-13T08:48:49.530Z,1016.52
2018-09-13T08:49:59.249Z,1016.55
2018-09-13T08:51:08.966Z,1016.57
2018-09-13T08:52:18.917Z,1016.54
2018-09-13T08:53:28.877Z,1016.55
2018-09-13T08:54:38.590Z,1016.52
2018-09-13T08:55:48.564Z,1016.53
2018-09-13T08:56:58.573Z,1016.48
2018-09-13T08:58:08.595Z,1016.45
2018-09-13T08:59:18.555Z,1016.43
2018-09-13T09:00:28.306Z,1016.45
2018-09-13T09:01:38.474Z,1016.42
2018-09-13T09:02:48.180Z,1016.44
2018-09-13T09:03:58.196Z,1016.44
2018-09-13T09:05:07.640Z,1016.42
2018-09-13T09:06:17.634Z,1016.39
2018-09-13T09:07:27.925Z,1016.39
2018-09-13T09:08:37.881Z,1016.4
2018-09-13T09:09:47.594Z,1016.38
2018-09-13T09:10:57.542Z,1016.34
2018-09-13T09:12:07.248Z,1016.36
2018-09-13T09:13:17.254Z,1016.32
2018-09-13T09:14:26.970Z,1016.35
2018-09-13T09:15:36.914Z,1016.37
2018-09-13T09:16:46.873Z,1016.41
2018-09-13T09:17:56.577Z,1016.41
2018-09-13T09:19:06.290Z,1016.45
2018-09-13T09:20:16.237Z,1016.42
2018-09-13T09:21:26.200Z,1016.35
2018-09-13T09:22:36.170Z,1016.28
2018-09-13T09:23:46.108Z,1016.25
2018-09-13T09:24:56.091Z,1016.26
2018-09-13T09:26:05.781Z,1016.32
2018-09-13T09:27:15.508Z,1016.36
2018-09-13T09:28:25.445Z,1016.47
2018-09-13T09:29:35.386Z,1016.48
2018-09-13T09:30:44.836Z,1016.49
2018-09-13T09:31:55.048Z,1016.43
2018-09-13T09:33:05.016Z,1016.39
2018-09-13T09:34:15.022Z,1016.38
2018-09-13T09:35:24.988Z,1016.35
2018-09-13T09:36:34.723Z,1016.27
2018-09-13T09:37:44.440Z,1016.28
2018-09-13T09:38:54.137Z,1016.28
2018-09-13T09:40:04.134Z,1016.4
2018-09-13T09:41:13.826Z,1016.42
2018-09-13T09:42:23.782Z,1016.39
2018-09-13T09:43:33.760Z,1016.34
2018-09-13T09:44:43.729Z,1016.21
2018-09-13T09:45:53.804Z,1016.19
2018-09-13T09:47:03.758Z,1016.22
2018-09-13T09:48:13.828Z,1016.34
2018-09-13T09:49:23.688Z,1016.35
2018-09-13T09:50:33.420Z,1016.37
2018-09-13T09:51:43.274Z,1016.32
2018-09-13T09:52:53.360Z,1016.28
2018-09-13T09:54:03.422Z,1016.29
2018-09-13T09:55:13.398Z,1016.29
2018-09-13T09:56:23.093Z,1016.27
2018-09-13T09:57:33.083Z,1016.24
2018-09-13T09:58:42.822Z,1016.26
2018-09-13T09:59:52.516Z,1016.3
2018-09-13T10:01:02.495Z,1016.31
2018-09-13T10:02:12.467Z,1016.34
2018-09-13T10:03:22.469Z,1016.35
2018-09-13T10:04:32.464Z,1016.28
2018-09-13T10:05:42.837Z,1016.29
2018-09-13T10:06:52.558Z,1016.27
2018-09-13T10:08:02.520Z,1016.22
2018-09-13T10:09:12.552Z,1016.23
2018-09-13T10:10:22.264Z,1016.19
2018-09-13T10:11:32.225Z,1016.24
2018-09-13T10:12:42.174Z,1016.26
2018-09-13T10:13:52.124Z,1016.31
2018-09-13T10:15:01.901Z,1016.31
2018-09-13T10:16:12.048Z,1016.32
2018-09-13T10:17:22.244Z,1016.3
2018-09-13T10:18:32.284Z,1016.33
2018-09-13T10:19:42.255Z,1016.31
2018-09-13T10:20:51.711Z,1016.27
2018-09-13T10:22:01.399Z,1016.23
2018-09-13T10:23:11.367Z,1016.18
2018-09-13T10:24:21.076Z,1016.09
2018-09-13T10:25:31.036Z,1016.09
2018-09-13T10:26:41.019Z,1016.04
2018-09-13T10:27:50.796Z,1016.02
2018-09-13T10:29:00.537Z,1016.01
2018-09-13T10:30:10.949Z,1016.05
2018-09-13T10:31:20.912Z,1016.04
2018-09-13T10:32:30.881Z,1015.99
2018-09-13T10:33:40.935Z,1016.03
2018-09-13T10:34:51.188Z,1016.06
2018-09-13T10:36:01.153Z,1016.06
2018-09-13T10:37:11.135Z,1016.05
2018-09-13T10:38:21.106Z,1016.07
2018-09-13T10:39:31.112Z,1016.09
2018-09-13T10:40:41.156Z,1016.04
2018-09-13T10:41:51.507Z,1016.09
2018-09-13T10:43:01.471Z,1016.04
2018-09-13T10:44:11.198Z,1016.04
2018-09-13T10:45:20.893Z,1015.98
2018-09-13T10:46:30.864Z,1015.99
2018-09-13T10:47:42.166Z,1015.96
2018-09-13T10:49:02.073Z,1015.96
2018-09-13T10:50:12.034Z,1015.98
2018-09-13T10:51:21.818Z,1015.97
2018-09-13T10:52:31.786Z,1015.96
2018-09-13T10:53:42.013Z,1015.98
2018-09-13T10:54:52.003Z,1015.97
2018-09-13T10:56:01.705Z,1015.95
2018-09-13T10:57:11.688Z,1015.9
2018-09-13T10:58:21.437Z,1015.91
2018-09-13T10:59:31.398Z,1015.87
2018-09-13T11:00:41.365Z,1015.92
2018-09-13T11:01:51.335Z,1015.93
2018-09-13T11:03:01.412Z,1015.9
2018-09-13T11:04:11.491Z,1015.9
2018-09-13T11:05:21.882Z,1015.95
2018-09-13T11:06:31.909Z,1015.89
2018-09-13T11:07:41.917Z,1015.92
2018-09-13T11:08:51.875Z,1015.88
2018-09-13T11:10:01.596Z,1015.86
2018-09-13T11:11:11.589Z,1015.87
2018-09-13T11:12:22.058Z,1015.85
2018-09-13T11:13:32.036Z,1015.9
2018-09-13T11:14:42.015Z,1015.82
2018-09-13T11:15:51.474Z,1015.82
2018-09-13T11:17:01.439Z,1015.83
2018-09-13T11:18:11.131Z,1015.85
2018-09-13T11:19:20.832Z,1015.87
2018-09-13T11:20:30.554Z,1015.84
2018-09-13T11:21:40.613Z,1015.81
2018-09-13T11:22:51.030Z,1015.8
2018-09-13T11:24:00.993Z,1015.78
2018-09-13T11:25:10.964Z,1015.76
2018-09-13T11:26:20.684Z,1015.72
2018-09-13T11:27:30.654Z,1015.75
2018-09-13T11:28:40.104Z,1015.78
2018-09-13T11:29:50.071Z,1015.76
2018-09-13T11:30:59.800Z,1015.78
2018-09-13T11:32:09.764Z,1015.79
2018-09-13T11:33:19.727Z,1015.81
2018-09-13T11:34:29.717Z,1015.81
2018-09-13T11:35:39.745Z,1015.81
2018-09-13T11:36:49.752Z,1015.82
2018-09-13T11:37:59.712Z,1015.91
2018-09-13T11:39:09.413Z,1015.86
2018-09-13T11:40:19.428Z,1015.87
2018-09-13T11:41:29.977Z,1015.82
2018-09-13T11:42:40.064Z,1015.8
2018-09-13T11:43:49.777Z,1015.83
2018-09-13T11:44:59.495Z,1015.85
2018-09-13T11:46:09.468Z,1015.87
2018-09-13T11:47:19.481Z,1015.86
2018-09-13T11:48:29.171Z,1015.85
2018-09-13T11:49:39.140Z,1015.82
2018-09-13T11:50:48.849Z,1015.84
2018-09-13T11:51:58.544Z,1015.85
2018-09-13T11:53:08.521Z,1015.86
2018-09-13T11:54:18.482Z,1015.9
2018-09-13T11:55:28.185Z,1015.89
2018-09-13T11:56:38.158Z,1015.93
2018-09-13T11:57:47.867Z,1015.88
2018-09-13T11:58:57.815Z,1015.86
2018-09-13T12:00:07.779Z,1015.85
2018-09-13T12:01:17.755Z,1015.85
2018-09-13T12:02:27.922Z,1015.82
2018-09-13T12:03:37.875Z,1015.81
2018-09-13T12:04:47.334Z,1015.82
2018-09-13T12:05:57.348Z,1015.86
2018-09-13T12:07:07.053Z,1015.87
2018-09-13T12:08:16.761Z,1015.85
2018-09-13T12:09:26.766Z,1015.86
2018-09-13T12:10:37.304Z,1015.85
2018-09-13T12:11:47.269Z,1015.83
2018-09-13T12:12:56.721Z,1015.82
2018-09-13T12:14:06.681Z,1015.79
2018-09-13T12:15:16.390Z,1015.8
2018-09-13T12:16:26.085Z,1015.83
2018-09-13T12:17:35.799Z,1015.81
2018-09-13T12:18:45.554Z,1015.78
2018-09-13T12:19:55.237Z,1015.75
2018-09-13T12:21:04.948Z,1015.77
2018-09-13T12:22:14.646Z,1015.76
2018-09-13T12:23:24.313Z,1015.78
2018-09-13T12:24:34.005Z,1015.8
2018-09-13T12:25:43.766Z,1015.8
2018-09-13T12:26:53.796Z,1015.78
2018-09-13T12:28:03.490Z,1015.74
2018-09-13T12:29:12.957Z,1015.75
2018-09-13T12:30:22.904Z,1015.74
2018-09-13T12:31:32.862Z,1015.68
2018-09-13T12:32:42.883Z,1015.72
2018-09-13T12:33:52.714Z,1015.67
2018-09-13T12:35:02.656Z,1015.6
2018-09-13T12:36:12.366Z,1015.69
2018-09-13T12:37:22.319Z,1015.64
2018-09-13T12:38:32.333Z,1015.69
2018-09-13T12:39:42.288Z,1015.67
2018-09-13T12:40:52.234Z,1015.69
2018-09-13T12:42:02.222Z,1015.67
2018-09-13T12:43:12.239Z,1015.65
2018-09-13T12:44:21.961Z,1015.66
2018-09-13T12:45:31.924Z,1015.58
2018-09-13T12:46:41.636Z,1015.57
2018-09-13T12:47:51.610Z,1015.56
2018-09-13T12:49:01.592Z,1015.53
2018-09-13T12:50:11.574Z,1015.54
2018-09-13T12:51:21.564Z,1015.49
2018-09-13T12:52:31.526Z,1015.5
2018-09-13T12:53:40.789Z,1015.49
2018-09-13T12:54:50.514Z,1015.47
2018-09-13T12:56:00.661Z,1015.49
2018-09-13T12:57:10.634Z,1015.48
2018-09-13T12:58:20.592Z,1015.45
2018-09-13T12:59:30.544Z,1015.44
2018-09-13T13:00:40.232Z,1015.45
2018-09-13T13:01:50.184Z,1015.42
2018-09-13T13:02:59.869Z,1015.43
2018-09-13T13:04:09.585Z,1015.41
2018-09-13T13:05:19.297Z,1015.38
2018-09-13T13:06:29.005Z,1015.39
2018-09-13T13:07:38.837Z,1015.33
2018-09-13T13:08:48.387Z,1015.28
2018-09-13T13:09:58.686Z,1015.25
2018-09-13T13:11:08.651Z,1015.22
2018-09-13T13:12:18.676Z,1015.2
2018-09-13T13:13:28.371Z,1015.24
2018-09-13T13:14:38.080Z,1015.2
2018-09-13T13:15:48.053Z,1015.19
2018-09-13T13:16:58.126Z,1015.16
2018-09-13T13:18:08.476Z,1015.12
2018-09-13T13:19:18.500Z,1015.13
2018-09-13T13:20:29.010Z,1015.1
2018-09-13T13:21:38.696Z,1015.07
2018-09-13T13:22:48.412Z,1015.11
2018-09-13T13:23:58.396Z,1015.12
2018-09-13T13:25:08.099Z,1015.17
2018-09-13T13:26:18.056Z,1015.14
2018-09-13T13:27:27.916Z,1015.14
2018-09-13T13:28:38.333Z,1015.12
2018-09-13T13:29:48.284Z,1015.08
2018-09-13T13:30:58.237Z,1015.11
2018-09-13T13:32:07.932Z,1015.08
2018-09-13T13:33:17.628Z,1015.07
2018-09-13T13:34:27.353Z,1015.05
2018-09-13T13:35:37.316Z,1015.02
2018-09-13T13:36:46.775Z,1015.04
2018-09-13T13:37:56.755Z,1015.06
2018-09-13T13:39:06.504Z,1015.05
2018-09-13T13:40:16.516Z,1015.02
2018-09-13T13:41:26.235Z,1015.02
2018-09-13T13:42:36.228Z,1015.02
2018-09-13T13:43:46.196Z,1015
2018-09-13T13:44:55.730Z,1015.05
2018-09-13T13:46:05.713Z,1014.99
2018-09-13T13:47:15.491Z,1014.99
2018-09-13T13:48:24.857Z,1014.98
2018-09-13T13:49:34.632Z,1014.95
2018-09-13T13:50:44.278Z,1014.91
2018-09-13T13:51:54.249Z,1014.9
2018-09-13T13:53:04.219Z,1014.95
2018-09-13T13:54:14.175Z,1014.98
2018-09-13T13:55:23.876Z,1014.96
2018-09-13T13:56:33.832Z,1014.98
2018-09-13T13:57:43.804Z,1014.95
2018-09-13T13:58:53.765Z,1014.96
2018-09-13T14:00:03.730Z,1014.94
2018-09-13T14:01:13.734Z,1015
2018-09-13T14:02:23.445Z,1014.99
2018-09-13T14:03:33.435Z,1014.99
2018-09-13T14:04:43.412Z,1014.99
2018-09-13T14:05:52.902Z,1014.99
2018-09-13T14:07:02.621Z,1014.96
2018-09-13T14:08:12.321Z,1014.96
2018-09-13T14:09:22.291Z,1014.99
2018-09-13T14:10:32.269Z,1015.01